sensor_id;sensor_type;location;lat;lon;timestamp;pressure;altitude;pressure_sealevel;temperature;humidity
70488;BME280;57976;48.174;16.370;2023-05-29T00:01:06;99271.80;;;16.46;66.99
70488;BME280;57976;48.174;16.370;2023-05-29T00:03:11;99272.40;;;16.43;66.67
70488;BME280;57976;48.174;16.370;2023-05-29T00:05:17;99273.06;;;16.38;66.76
70488;BME280;57976;48.174;16.370;2023-05-29T00:07:22;99271.60;;;16.35;66.96
70488;BME280;57976;48.174;16.370;2023-05-29T00:09:27;99272.60;;;16.28;66.99
70488;BME280;57976;48.174;16.370;2023-05-29T00:11:32;99278.20;;;16.21;67.24
70488;BME280;57976;48.174;16.370;2023-05-29T00:13:37;99282.73;;;16.14;67.60
70488;BME280;57976;48.174;16.370;2023-05-29T00:15:42;99282.92;;;16.07;67.80
70488;BME280;57976;48.174;16.370;2023-05-29T00:17:47;99281.76;;;16.05;68.21
70488;BME280;57976;48.174;16.370;2023-05-29T00:19:52;99279.67;;;16.06;68.28
70488;BME280;57976;48.174;16.370;2023-05-29T00:21:57;99281.36;;;16.07;68.09
70488;BME280;57976;48.174;16.370;2023-05-29T00:24:05;99281.38;;;16.08;69.06
70488;BME280;57976;48.174;16.370;2023-05-29T00:26:10;99279.14;;;16.08;68.61
70488;BME280;57976;48.174;16.370;2023-05-29T00:28:15;99273.56;;;16.10;68.48
70488;BME280;57976;48.174;16.370;2023-05-29T00:30:20;99270.87;;;16.09;68.66
70488;BME280;57976;48.174;16.370;2023-05-29T00:32:26;99270.44;;;16.07;68.65
70488;BME280;57976;48.174;16.370;2023-05-29T00:34:31;99268.67;;;16.04;68.43
70488;BME280;57976;48.174;16.370;2023-05-29T00:36:36;99267.79;;;16.03;68.39
70488;BME280;57976;48.174;16.370;2023-05-29T00:38:41;99266.95;;;16.02;68.39
70488;BME280;57976;48.174;16.370;2023-05-29T00:40:46;99269.77;;;16.01;68.79
70488;BME280;57976;48.174;16.370;2023-05-29T00:42:51;99269.49;;;16.00;68.87
70488;BME280;57976;48.174;16.370;2023-05-29T00:44:56;99268.01;;;15.98;68.40
70488;BME280;57976;48.174;16.370;2023-05-29T00:47:01;99267.10;;;15.96;68.48
70488;BME280;57976;48.174;16.370;2023-05-29T00:49:06;99270.13;;;15.94;68.21
70488;BME280;57976;48.174;16.370;2023-05-29T00:51:12;99266.27;;;15.90;68.11
70488;BME280;57976;48.174;16.370;2023-05-29T00:53:18;99266.34;;;15.88;67.90
70488;BME280;57976;48.174;16.370;2023-05-29T00:55:24;99263.83;;;15.86;68.26
70488;BME280;57976;48.174;16.370;2023-05-29T00:57:36;99261.05;;;15.85;68.23
70488;BME280;57976;48.174;16.370;2023-05-29T00:59:42;99264.67;;;15.83;68.02
70488;BME280;57976;48.174;16.370;2023-05-29T01:01:49;99263.02;;;15.81;67.94
70488;BME280;57976;48.174;16.370;2023-05-29T01:05:41;99262.70;;;15.80;67.81
70488;BME280;57976;48.174;16.370;2023-05-29T01:07:46;99261.15;;;15.75;67.79
70488;BME280;57976;48.174;16.370;2023-05-29T01:09:51;99260.33;;;15.72;67.73
70488;BME280;57976;48.174;16.370;2023-05-29T01:11:59;99259.29;;;15.68;67.45
70488;BME280;57976;48.174;16.370;2023-05-29T01:14:10;99262.34;;;15.63;67.61
70488;BME280;57976;48.174;16.370;2023-05-29T01:16:25;99262.10;;;15.57;67.49
70488;BME280;57976;48.174;16.370;2023-05-29T01:18:41;99266.15;;;15.50;67.83
70488;BME280;57976;48.174;16.370;2023-05-29T01:20:55;99263.35;;;15.45;68.03
70488;BME280;57976;48.174;16.370;2023-05-29T01:23:15;99266.42;;;15.40;68.01
70488;BME280;57976;48.174;16.370;2023-05-29T01:25:34;99268.05;;;15.34;67.98
70488;BME280;57976;48.174;16.370;2023-05-29T01:27:44;99266.27;;;15.32;68.33
70488;BME280;57976;48.174;16.370;2023-05-29T01:29:51;99264.42;;;15.31;68.78
70488;BME280;57976;48.174;16.370;2023-05-29T01:31:57;99263.47;;;15.32;68.65
70488;BME280;57976;48.174;16.370;2023-05-29T01:34:02;99260.54;;;15.30;68.48
70488;BME280;57976;48.174;16.370;2023-05-29T01:36:09;99258.24;;;15.28;68.19
70488;BME280;57976;48.174;16.370;2023-05-29T01:38:14;99255.51;;;15.24;68.14
70488;BME280;57976;48.174;16.370;2023-05-29T01:40:20;99256.30;;;15.19;68.21
70488;BME280;57976;48.174;16.370;2023-05-29T01:42:26;99252.86;;;15.10;68.17
70488;BME280;57976;48.174;16.370;2023-05-29T01:44:32;99253.61;;;15.01;68.34
70488;BME280;57976;48.174;16.370;2023-05-29T01:46:38;99252.48;;;14.96;68.69
70488;BME280;57976;48.174;16.370;2023-05-29T01:48:44;99259.41;;;14.93;68.83
70488;BME280;57976;48.174;16.370;2023-05-29T01:50:50;99260.44;;;14.91;69.24
70488;BME280;57976;48.174;16.370;2023-05-29T01:52:55;99261.55;;;14.88;69.50
70488;BME280;57976;48.174;16.370;2023-05-29T01:55:00;99259.13;;;14.86;69.29
70488;BME280;57976;48.174;16.370;2023-05-29T01:57:07;99260.73;;;14.85;69.64
70488;BME280;57976;48.174;16.370;2023-05-29T01:59:13;99262.44;;;14.86;69.48
70488;BME280;57976;48.174;16.370;2023-05-29T02:01:18;99260.39;;;14.88;69.62
70488;BME280;57976;48.174;16.370;2023-05-29T02:03:23;99257.92;;;14.87;69.19
70488;BME280;57976;48.174;16.370;2023-05-29T02:05:28;99257.50;;;14.83;69.28
70488;BME280;57976;48.174;16.370;2023-05-29T02:07:33;99255.96;;;14.82;69.76
70488;BME280;57976;48.174;16.370;2023-05-29T02:09:38;99255.82;;;14.80;69.20
70488;BME280;57976;48.174;16.370;2023-05-29T02:11:43;99255.17;;;14.78;69.39
70488;BME280;57976;48.174;16.370;2023-05-29T02:13:48;99254.67;;;14.76;69.14
70488;BME280;57976;48.174;16.370;2023-05-29T02:15:52;99253.95;;;14.72;69.18
70488;BME280;57976;48.174;16.370;2023-05-29T02:17:57;99252.65;;;14.68;69.11
70488;BME280;57976;48.174;16.370;2023-05-29T02:20:02;99255.46;;;14.64;69.44
70488;BME280;57976;48.174;16.370;2023-05-29T02:22:08;99257.95;;;14.61;69.80
70488;BME280;57976;48.174;16.370;2023-05-29T02:24:12;99257.52;;;14.57;69.68
70488;BME280;57976;48.174;16.370;2023-05-29T02:26:17;99258.09;;;14.52;69.83
70488;BME280;57976;48.174;16.370;2023-05-29T02:28:22;99259.16;;;14.48;69.76
70488;BME280;57976;48.174;16.370;2023-05-29T02:30:27;99256.58;;;14.44;70.02
70488;BME280;57976;48.174;16.370;2023-05-29T02:32:32;99255.77;;;14.42;70.19
70488;BME280;57976;48.174;16.370;2023-05-29T02:34:37;99253.52;;;14.38;70.65
70488;BME280;57976;48.174;16.370;2023-05-29T02:36:42;99252.46;;;14.35;70.68
70488;BME280;57976;48.174;16.370;2023-05-29T02:38:46;99246.33;;;14.30;70.81
70488;BME280;57976;48.174;16.370;2023-05-29T02:40:51;99244.92;;;14.27;70.82
70488;BME280;57976;48.174;16.370;2023-05-29T02:42:56;99242.09;;;14.22;71.14
70488;BME280;57976;48.174;16.370;2023-05-29T02:45:01;99240.20;;;14.19;71.14
70488;BME280;57976;48.174;16.370;2023-05-29T02:47:06;99241.55;;;14.16;71.30
70488;BME280;57976;48.174;16.370;2023-05-29T02:49:12;99239.73;;;14.14;71.67
70488;BME280;57976;48.174;16.370;2023-05-29T02:51:17;99239.96;;;14.11;72.07
70488;BME280;57976;48.174;16.370;2023-05-29T02:53:22;99242.67;;;14.06;72.20
70488;BME280;57976;48.174;16.370;2023-05-29T02:55:26;99241.71;;;14.00;72.55
70488;BME280;57976;48.174;16.370;2023-05-29T02:57:31;99239.17;;;13.95;72.54
70488;BME280;57976;48.174;16.370;2023-05-29T02:59:36;99240.00;;;13.91;72.63
70488;BME280;57976;48.174;16.370;2023-05-29T03:01:40;99237.02;;;13.88;72.89
70488;BME280;57976;48.174;16.370;2023-05-29T03:03:45;99237.98;;;13.88;73.08
70488;BME280;57976;48.174;16.370;2023-05-29T03:05:50;99239.17;;;13.87;72.90
70488;BME280;57976;48.174;16.370;2023-05-29T03:07:55;99238.30;;;13.86;72.85
70488;BME280;57976;48.174;16.370;2023-05-29T03:10:00;99236.29;;;13.85;73.20
70488;BME280;57976;48.174;16.370;2023-05-29T03:12:07;99238.36;;;13.84;73.11
70488;BME280;57976;48.174;16.370;2023-05-29T03:14:12;99239.98;;;13.83;73.13
70488;BME280;57976;48.174;16.370;2023-05-29T03:16:17;99238.10;;;13.81;73.32
70488;BME280;57976;48.174;16.370;2023-05-29T03:18:23;99242.80;;;13.81;73.43
70488;BME280;57976;48.174;16.370;2023-05-29T03:20:28;99236.95;;;13.78;73.48
70488;BME280;57976;48.174;16.370;2023-05-29T03:22:34;99239.96;;;13.77;73.75
70488;BME280;57976;48.174;16.370;2023-05-29T03:24:39;99237.05;;;13.76;73.87
70488;BME280;57976;48.174;16.370;2023-05-29T03:26:44;99240.52;;;13.74;73.75
70488;BME280;57976;48.174;16.370;2023-05-29T03:28:49;99242.10;;;13.73;73.86
70488;BME280;57976;48.174;16.370;2023-05-29T03:30:55;99242.39;;;13.72;73.95
70488;BME280;57976;48.174;16.370;2023-05-29T03:33:01;99242.92;;;13.74;73.77
70488;BME280;57976;48.174;16.370;2023-05-29T03:35:17;99246.48;;;13.76;73.69
70488;BME280;57976;48.174;16.370;2023-05-29T03:37:23;99247.91;;;13.77;73.87
70488;BME280;57976;48.174;16.370;2023-05-29T03:39:28;99250.21;;;13.77;73.76
70488;BME280;57976;48.174;16.370;2023-05-29T03:41:34;99254.00;;;13.77;73.59
70488;BME280;57976;48.174;16.370;2023-05-29T03:43:39;99252.93;;;13.77;73.68
70488;BME280;57976;48.174;16.370;2023-05-29T03:45:44;99258.39;;;13.78;73.63
70488;BME280;57976;48.174;16.370;2023-05-29T03:47:49;99258.70;;;13.77;73.71
70488;BME280;57976;48.174;16.370;2023-05-29T03:49:55;99259.14;;;13.77;73.67
70488;BME280;57976;48.174;16.370;2023-05-29T03:52:00;99257.83;;;13.78;73.36
70488;BME280;57976;48.174;16.370;2023-05-29T03:54:08;99259.26;;;13.79;73.34
70488;BME280;57976;48.174;16.370;2023-05-29T03:56:13;99260.27;;;13.79;73.39
70488;BME280;57976;48.174;16.370;2023-05-29T03:58:18;99262.88;;;13.82;73.31
70488;BME280;57976;48.174;16.370;2023-05-29T04:00:24;99266.33;;;13.83;73.41
70488;BME280;57976;48.174;16.370;2023-05-29T04:02:29;99268.30;;;13.84;73.36
70488;BME280;57976;48.174;16.370;2023-05-29T04:04:34;99270.08;;;13.87;73.28
70488;BME280;57976;48.174;16.370;2023-05-29T04:06:39;99268.05;;;13.88;73.33
70488;BME280;57976;48.174;16.370;2023-05-29T04:08:44;99272.80;;;13.94;73.16
70488;BME280;57976;48.174;16.370;2023-05-29T04:10:49;99271.67;;;13.97;72.95
70488;BME280;57976;48.174;16.370;2023-05-29T04:12:56;99277.91;;;14.01;72.96
70488;BME280;57976;48.174;16.370;2023-05-29T04:15:01;99275.70;;;14.04;73.05
70488;BME280;57976;48.174;16.370;2023-05-29T04:17:07;99274.95;;;14.09;72.86
70488;BME280;57976;48.174;16.370;2023-05-29T04:19:12;99271.73;;;14.16;72.75
70488;BME280;57976;48.174;16.370;2023-05-29T04:21:17;99268.95;;;14.20;72.65
70488;BME280;57976;48.174;16.370;2023-05-29T04:23:22;99269.27;;;14.24;72.38
70488;BME280;57976;48.174;16.370;2023-05-29T04:25:27;99266.42;;;14.25;72.35
70488;BME280;57976;48.174;16.370;2023-05-29T04:27:32;99269.34;;;14.26;71.91
70488;BME280;57976;48.174;16.370;2023-05-29T04:29:37;99270.36;;;14.26;72.28
70488;BME280;57976;48.174;16.370;2023-05-29T04:31:42;99273.60;;;14.28;72.31
70488;BME280;57976;48.174;16.370;2023-05-29T04:33:47;99282.86;;;14.34;72.31
70488;BME280;57976;48.174;16.370;2023-05-29T04:35:52;99283.04;;;14.39;72.16
70488;BME280;57976;48.174;16.370;2023-05-29T04:37:56;99291.61;;;14.45;71.96
70488;BME280;57976;48.174;16.370;2023-05-29T04:40:05;99292.32;;;14.51;72.01
70488;BME280;57976;48.174;16.370;2023-05-29T04:42:10;99289.41;;;14.55;71.50
70488;BME280;57976;48.174;16.370;2023-05-29T04:44:16;99287.85;;;14.58;71.76
70488;BME280;57976;48.174;16.370;2023-05-29T04:46:27;99286.36;;;14.65;71.38
70488;BME280;57976;48.174;16.370;2023-05-29T04:48:32;99286.52;;;14.71;71.29
70488;BME280;57976;48.174;16.370;2023-05-29T04:50:37;99288.14;;;14.82;71.09
70488;BME280;57976;48.174;16.370;2023-05-29T04:52:43;99291.63;;;14.94;70.57
70488;BME280;57976;48.174;16.370;2023-05-29T04:54:48;99296.09;;;15.04;70.03
70488;BME280;57976;48.174;16.370;2023-05-29T04:56:53;99304.13;;;15.15;69.61
70488;BME280;57976;48.174;16.370;2023-05-29T04:59:01;99305.71;;;15.22;69.11
70488;BME280;57976;48.174;16.370;2023-05-29T05:01:06;99298.55;;;15.28;68.61
70488;BME280;57976;48.174;16.370;2023-05-29T05:03:10;99300.33;;;15.35;68.20
70488;BME280;57976;48.174;16.370;2023-05-29T05:05:16;99304.45;;;15.41;68.33
70488;BME280;57976;48.174;16.370;2023-05-29T05:07:20;99300.80;;;15.46;67.76
70488;BME280;57976;48.174;16.370;2023-05-29T05:09:25;99306.86;;;15.54;67.41
70488;BME280;57976;48.174;16.370;2023-05-29T05:11:30;99306.94;;;15.59;67.45
70488;BME280;57976;48.174;16.370;2023-05-29T05:13:36;99308.64;;;15.65;67.38
70488;BME280;57976;48.174;16.370;2023-05-29T05:15:40;99308.79;;;15.74;66.67
70488;BME280;57976;48.174;16.370;2023-05-29T05:17:45;99306.36;;;15.78;66.82
70488;BME280;57976;48.174;16.370;2023-05-29T05:19:50;99309.40;;;15.87;66.77
70488;BME280;57976;48.174;16.370;2023-05-29T05:21:55;99305.42;;;15.96;66.10
70488;BME280;57976;48.174;16.370;2023-05-29T05:24:01;99304.30;;;16.04;65.76
